createdAt,value
2019-03-27T00:00:04.121Z,84.04
2019-03-27T00:00:30.230Z,83.75
2019-03-27T00:00:56.332Z,84.42
2019-03-27T00:01:22.439Z,84.33
2019-03-27T00:01:48.571Z,84.23
2019-03-27T00:02:14.680Z,84.52
2019-03-27T00:02:40.821Z,84.61
2019-03-27T00:03:06.955Z,84.23
2019-03-27T00:03:33.065Z,84.23
2019-03-27T00:03:59.169Z,84.23
2019-03-27T00:04:25.310Z,84.42
2019-03-27T00:04:51.529Z,83.65
2019-03-27T00:05:17.656Z,84.33
2019-03-27T00:05:43.727Z,84.23
2019-03-27T00:06:09.834Z,84.42
2019-03-27T00:06:35.937Z,84.13
2019-03-27T00:07:02.058Z,84.13
2019-03-27T00:07:28.209Z,84.04
2019-03-27T00:07:54.350Z,84.33
2019-03-27T00:08:20.503Z,84.33
2019-03-27T00:08:46.619Z,84.23
2019-03-27T00:09:12.723Z,84.33
2019-03-27T00:09:38.825Z,84.61
2019-03-27T00:10:04.939Z,84.7
2019-03-27T00:10:31.132Z,84.7
2019-03-27T00:10:57.279Z,84.52
2019-03-27T00:11:24.376Z,84.61
2019-03-27T00:11:50.483Z,84.7
2019-03-27T00:12:16.592Z,84.33
2019-03-27T00:12:42.700Z,84.23
2019-03-27T00:13:08.830Z,84.61
2019-03-27T00:13:34.943Z,84.52
2019-03-27T00:14:01.077Z,84.42
2019-03-27T00:14:27.187Z,84.61
2019-03-27T00:14:53.294Z,84.23
2019-03-27T00:15:21.408Z,84.61
2019-03-27T00:15:47.505Z,84.89
2019-03-27T00:16:13.610Z,84.7
2019-03-27T00:16:39.741Z,84.61
2019-03-27T00:17:05.848Z,84.61
2019-03-27T00:17:31.957Z,84.23
2019-03-27T00:17:58.069Z,84.23
2019-03-27T00:18:24.175Z,84.61
2019-03-27T00:18:50.283Z,84.61
2019-03-27T00:19:16.414Z,84.89
2019-03-27T00:19:42.526Z,84.61
2019-03-27T00:20:08.628Z,84.7
2019-03-27T00:20:34.738Z,84.52
2019-03-27T00:21:00.846Z,84.61
2019-03-27T00:21:26.948Z,84.61
2019-03-27T00:21:53.062Z,84.61
2019-03-27T00:22:19.170Z,84.61
2019-03-27T00:22:45.278Z,84.7
2019-03-27T00:23:11.386Z,84.52
2019-03-27T00:23:37.524Z,84.33
2019-03-27T00:24:03.638Z,85.18
2019-03-27T00:24:29.802Z,85.28
2019-03-27T00:24:55.909Z,84.33
2019-03-27T00:25:22.015Z,84.52
2019-03-27T00:25:48.156Z,84.33
2019-03-27T00:26:14.265Z,84.23
2019-03-27T00:26:40.370Z,84.89
2019-03-27T00:27:06.476Z,84.89
2019-03-27T00:27:32.638Z,85.08
2019-03-27T00:27:58.744Z,84.99
2019-03-27T00:28:24.848Z,85.37
2019-03-27T00:28:50.966Z,85.37
2019-03-27T00:29:17.070Z,85.28
2019-03-27T00:29:43.184Z,85.28
2019-03-27T00:30:09.287Z,84.61
2019-03-27T00:30:35.394Z,85.18
2019-03-27T00:31:01.499Z,85.18
2019-03-27T00:31:27.629Z,85.18
2019-03-27T00:31:53.742Z,85.08
2019-03-27T00:32:19.850Z,85.08
2019-03-27T00:32:45.950Z,85.18
2019-03-27T00:33:12.063Z,85.28
2019-03-27T00:33:38.198Z,85.28
2019-03-27T00:34:04.302Z,85.18
2019-03-27T00:34:30.421Z,84.99
2019-03-27T00:34:56.554Z,85.28
2019-03-27T00:35:22.659Z,85.47
2019-03-27T00:35:48.769Z,85.66
2019-03-27T00:36:14.898Z,85.85
2019-03-27T00:36:41.007Z,85.85
2019-03-27T00:37:07.118Z,85.37
2019-03-27T00:37:33.252Z,85.28
2019-03-27T00:37:59.365Z,85.37
2019-03-27T00:38:25.493Z,85.47
2019-03-27T00:38:51.595Z,85.66
2019-03-27T00:39:17.706Z,85.56
2019-03-27T00:39:43.812Z,85.85
2019-03-27T00:40:09.924Z,85.94
2019-03-27T00:40:36.035Z,85.75
2019-03-27T00:41:02.133Z,85.75
2019-03-27T00:41:28.254Z,85.94
2019-03-27T00:41:54.349Z,85.56
2019-03-27T00:42:20.459Z,85.66
2019-03-27T00:42:46.574Z,86.09
2019-03-27T00:43:12.724Z,86.18
2019-03-27T00:43:38.845Z,86.32
2019-03-27T00:44:04.956Z,85.9
2019-03-27T00:44:31.064Z,86.32
2019-03-27T00:44:57.171Z,86.32
2019-03-27T00:45:26.671Z,86.04
2019-03-27T00:45:51.396Z,86.04
2019-03-27T00:46:17.506Z,86.13
2019-03-27T00:46:43.650Z,86.13
2019-03-27T00:47:09.786Z,85.66
2019-03-27T00:47:35.921Z,85.66
2019-03-27T00:48:02.037Z,85.37
2019-03-27T00:48:28.139Z,86.04
2019-03-27T00:48:54.247Z,85.94
2019-03-27T00:49:20.354Z,85.47
2019-03-27T00:49:46.454Z,86.04
2019-03-27T00:50:12.563Z,85.94
2019-03-27T00:50:38.688Z,85.37
2019-03-27T00:51:04.796Z,85.85
2019-03-27T00:51:30.905Z,85.75
2019-03-27T00:51:57.014Z,85.85
2019-03-27T00:52:23.125Z,85.66
2019-03-27T00:52:49.228Z,85.75
2019-03-27T00:53:15.352Z,85.33
2019-03-27T00:53:41.445Z,86.28
2019-03-27T00:54:07.549Z,86.57
2019-03-27T00:54:33.662Z,86.51
2019-03-27T00:54:59.831Z,86.61
2019-03-27T00:55:25.976Z,86.42
2019-03-27T00:55:52.076Z,86.42
2019-03-27T00:56:18.181Z,86.61
2019-03-27T00:56:44.290Z,86.51
2019-03-27T00:57:10.401Z,85.85
2019-03-27T00:57:36.502Z,86.22
2019-03-27T00:58:02.609Z,86.04
2019-03-27T00:58:28.713Z,86.13
2019-03-27T00:58:54.822Z,86.04
2019-03-27T00:59:20.926Z,86.42
2019-03-27T00:59:47.040Z,86.42
2019-03-27T01:00:13.146Z,86.42
2019-03-27T01:00:39.254Z,86.13
2019-03-27T01:01:05.394Z,86.28
2019-03-27T01:01:31.558Z,86.13
2019-03-27T01:01:57.664Z,86.04
2019-03-27T01:02:23.771Z,86.04
2019-03-27T01:02:49.883Z,86.22
2019-03-27T01:03:15.994Z,85.94
2019-03-27T01:03:42.130Z,85.94
2019-03-27T01:04:08.243Z,86.22
2019-03-27T01:04:34.376Z,86.32
2019-03-27T01:05:00.504Z,85.85
2019-03-27T01:05:26.601Z,86.32
2019-03-27T01:05:52.716Z,86.32
2019-03-27T01:06:18.816Z,86.18
2019-03-27T01:06:44.922Z,86.04
2019-03-27T01:07:11.996Z,86.13
2019-03-27T01:07:38.102Z,85.94
2019-03-27T01:08:04.214Z,85.85
2019-03-27T01:08:30.317Z,85.85
2019-03-27T01:08:56.427Z,86.04
2019-03-27T01:09:22.531Z,86.32
2019-03-27T01:09:48.673Z,86.13
2019-03-27T01:10:14.774Z,85.94
2019-03-27T01:10:40.888Z,86.13
2019-03-27T01:11:07.017Z,85.94
2019-03-27T01:11:33.168Z,86.22
2019-03-27T01:11:59.271Z,86.22
2019-03-27T01:12:25.424Z,86.13
2019-03-27T01:12:51.532Z,86.42
2019-03-27T01:13:17.640Z,86.8
2019-03-27T01:13:43.751Z,86.32
2019-03-27T01:14:09.855Z,86.04
2019-03-27T01:14:35.962Z,86.51
2019-03-27T01:15:02.070Z,86.32
2019-03-27T01:15:39.062Z,86.38
2019-03-27T01:15:56.265Z,86.57
2019-03-27T01:16:22.381Z,87.42
2019-03-27T01:16:48.484Z,87.13
2019-03-27T01:17:14.589Z,86.94
2019-03-27T01:17:40.694Z,87.13
2019-03-27T01:18:06.830Z,87.04
2019-03-27T01:18:32.938Z,86.94
2019-03-27T01:18:59.072Z,87.04
2019-03-27T01:19:25.183Z,86.94
2019-03-27T01:19:51.289Z,87.04
2019-03-27T01:20:17.399Z,87.32
2019-03-27T01:20:43.509Z,87.32
2019-03-27T01:21:09.617Z,87.32
2019-03-27T01:21:35.729Z,87.42
2019-03-27T01:22:01.861Z,87.23
2019-03-27T01:22:27.970Z,87.13
2019-03-27T01:22:54.079Z,86.94
2019-03-27T01:23:20.207Z,87.42
2019-03-27T01:23:46.322Z,87.32
2019-03-27T01:24:12.454Z,87.32
2019-03-27T01:24:38.593Z,87.32
2019-03-27T01:25:04.698Z,87.13
2019-03-27T01:25:30.833Z,87.23
2019-03-27T01:25:56.942Z,87.42
2019-03-27T01:26:23.096Z,87.32
2019-03-27T01:26:49.208Z,87.13
2019-03-27T01:27:15.314Z,87.52
2019-03-27T01:27:41.421Z,87.9
2019-03-27T01:28:07.531Z,87.42
2019-03-27T01:28:33.642Z,87.23
2019-03-27T01:28:59.746Z,87.8
2019-03-27T01:29:25.883Z,88.37
2019-03-27T01:29:52.020Z,88.09
2019-03-27T01:30:18.150Z,88.09
2019-03-27T01:30:44.287Z,88.28
2019-03-27T01:31:10.394Z,87.99
2019-03-27T01:31:36.505Z,87.9
2019-03-27T01:32:02.608Z,87.99
2019-03-27T01:32:28.715Z,88.56
2019-03-27T01:32:54.853Z,88.37
2019-03-27T01:33:20.959Z,88.46
2019-03-27T01:33:47.064Z,88.28
2019-03-27T01:34:13.206Z,88.37
2019-03-27T01:34:39.318Z,88.37
2019-03-27T01:35:05.562Z,88.56
2019-03-27T01:35:31.698Z,88.09
2019-03-27T01:35:57.798Z,88.09
2019-03-27T01:36:23.909Z,88.28
2019-03-27T01:36:50.021Z,88.56
2019-03-27T01:37:16.160Z,88.46
2019-03-27T01:37:42.272Z,88.56
2019-03-27T01:38:08.378Z,88.75
2019-03-27T01:38:34.484Z,88.66
2019-03-27T01:39:00.596Z,88.66
2019-03-27T01:39:26.698Z,88.85
2019-03-27T01:39:52.831Z,88.75
2019-03-27T01:40:18.968Z,88.56
2019-03-27T01:40:45.079Z,88.37
2019-03-27T01:41:11.198Z,88.94
2019-03-27T01:41:37.304Z,88.94
2019-03-27T01:42:03.412Z,89.23
2019-03-27T01:42:29.520Z,89.51
2019-03-27T01:42:55.627Z,89.42
2019-03-27T01:43:21.734Z,89.42
2019-03-27T01:43:47.848Z,89.61
2019-03-27T01:44:13.954Z,89.23
2019-03-27T01:44:40.061Z,89.32
2019-03-27T01:45:06.168Z,89.04
2019-03-27T01:45:32.275Z,89.04
2019-03-27T01:45:59.395Z,88.85
2019-03-27T01:46:25.512Z,88.85
2019-03-27T01:46:51.643Z,89.14
2019-03-27T01:47:17.749Z,89.23
2019-03-27T01:47:43.868Z,89.32
2019-03-27T01:48:10.007Z,89.32
2019-03-27T01:48:36.109Z,89.51
2019-03-27T01:49:02.218Z,89.51
2019-03-27T01:49:28.328Z,89.32
2019-03-27T01:49:54.436Z,89.51
2019-03-27T01:50:20.564Z,89.99
2019-03-27T01:50:46.675Z,90.08
2019-03-27T01:51:12.778Z,90.08
2019-03-27T01:51:38.885Z,90.37
2019-03-27T01:52:07.894Z,90.08
2019-03-27T01:52:32.093Z,90.08
2019-03-27T01:52:58.209Z,90.37
2019-03-27T01:53:24.333Z,90.42
2019-03-27T01:53:50.465Z,90.42
2019-03-27T01:54:16.572Z,90.33
2019-03-27T01:54:42.708Z,90.42
2019-03-27T01:55:08.818Z,90.8
2019-03-27T01:55:34.917Z,90.99
2019-03-27T01:56:01.053Z,90.52
2019-03-27T01:56:27.162Z,90.89
2019-03-27T01:56:53.264Z,90.8
2019-03-27T01:57:19.372Z,90.8
2019-03-27T01:57:45.480Z,90.8
2019-03-27T01:58:11.590Z,90.7
2019-03-27T01:58:37.696Z,90.66
2019-03-27T01:59:03.809Z,90.89
2019-03-27T01:59:29.912Z,90.89
2019-03-27T01:59:56.017Z,90.89
2019-03-27T02:00:22.128Z,91.18
2019-03-27T02:00:48.240Z,91.37
2019-03-27T02:01:14.340Z,90.7
2019-03-27T02:01:40.461Z,90.8
2019-03-27T02:02:06.576Z,91.18
2019-03-27T02:02:32.696Z,91.37
2019-03-27T02:02:58.806Z,91.18
2019-03-27T02:03:24.909Z,91.56
2019-03-27T02:03:51.022Z,91.28
2019-03-27T02:04:17.119Z,91.18
2019-03-27T02:04:43.231Z,91.28
2019-03-27T02:05:09.332Z,91.08
2019-03-27T02:05:35.465Z,91.28
2019-03-27T02:06:01.595Z,91.56
2019-03-27T02:06:27.728Z,91.56
2019-03-27T02:06:53.837Z,91.37
2019-03-27T02:07:19.977Z,91.66
2019-03-27T02:07:46.105Z,91.56
2019-03-27T02:08:12.214Z,91.37
2019-03-27T02:08:38.319Z,91.85
2019-03-27T02:09:04.428Z,91.37
2019-03-27T02:09:30.552Z,91.85
2019-03-27T02:09:56.666Z,92.13
2019-03-27T02:10:22.769Z,92.22
2019-03-27T02:10:48.880Z,91.85
2019-03-27T02:11:14.979Z,91.75
2019-03-27T02:11:41.089Z,91.94
2019-03-27T02:12:07.227Z,91.56
2019-03-27T02:12:33.335Z,91.94
2019-03-27T02:12:59.448Z,91.75
2019-03-27T02:13:25.557Z,91.94
2019-03-27T02:13:51.667Z,91.37
2019-03-27T02:14:17.787Z,91.37
2019-03-27T02:14:43.883Z,91.66
2019-03-27T02:15:10.020Z,91.37
2019-03-27T02:15:36.158Z,91.47
2019-03-27T02:16:06.954Z,91.37
2019-03-27T02:16:29.388Z,91.56
2019-03-27T02:16:55.530Z,91.47
2019-03-27T02:17:21.665Z,91.56
2019-03-27T02:17:47.817Z,91.56
2019-03-27T02:18:13.923Z,91.66
2019-03-27T02:18:40.031Z,91.56
2019-03-27T02:19:06.136Z,91.37
2019-03-27T02:19:32.245Z,91.8
2019-03-27T02:19:58.385Z,91.75
2019-03-27T02:20:24.493Z,91.56
2019-03-27T02:20:50.600Z,91.66
2019-03-27T02:21:16.733Z,91.37
2019-03-27T02:21:42.837Z,91.75
2019-03-27T02:22:08.975Z,91.56
2019-03-27T02:22:35.085Z,91.85
2019-03-27T02:23:01.192Z,91.94
2019-03-27T02:23:27.296Z,92.03
2019-03-27T02:23:53.414Z,92.22
2019-03-27T02:24:19.577Z,92.32
2019-03-27T02:24:45.737Z,91.75
2019-03-27T02:25:11.874Z,92.13
2019-03-27T02:25:37.987Z,92.32
2019-03-27T02:26:04.114Z,92.03
2019-03-27T02:26:30.225Z,92.13
2019-03-27T02:26:56.330Z,91.94
2019-03-27T02:27:22.470Z,92.22
2019-03-27T02:27:48.573Z,92.13
2019-03-27T02:28:14.679Z,92.03
2019-03-27T02:28:40.782Z,92.22
2019-03-27T02:29:06.898Z,92.03
2019-03-27T02:29:33.005Z,92.32
2019-03-27T02:29:59.112Z,92.13
2019-03-27T02:30:25.245Z,92.7
2019-03-27T02:30:51.438Z,92.32
2019-03-27T02:31:17.628Z,92.32
2019-03-27T02:31:43.736Z,92.03
2019-03-27T02:32:09.875Z,92.13
2019-03-27T02:32:36.787Z,92.22
2019-03-27T02:33:02.932Z,92.51
2019-03-27T02:33:29.060Z,92.32
2019-03-27T02:33:55.174Z,92.32
2019-03-27T02:34:21.326Z,92.03
2019-03-27T02:34:47.466Z,92.41
2019-03-27T02:35:13.695Z,92.41
2019-03-27T02:35:39.852Z,92.41
2019-03-27T02:36:05.963Z,92.22
2019-03-27T02:36:32.125Z,92.32
2019-03-27T02:36:58.235Z,92.61
2019-03-27T02:37:24.342Z,92.61
2019-03-27T02:37:50.507Z,92.13
2019-03-27T02:38:16.653Z,91.56
2019-03-27T02:38:42.837Z,92.13
2019-03-27T02:39:08.942Z,91.94
2019-03-27T02:39:35.053Z,92.13
2019-03-27T02:40:01.183Z,92.32
2019-03-27T02:40:27.348Z,92.89
2019-03-27T02:40:53.485Z,92.32
2019-03-27T02:41:19.612Z,93.08
2019-03-27T02:41:45.771Z,93.08
2019-03-27T02:42:11.918Z,92.89
2019-03-27T02:42:38.019Z,92.89
2019-03-27T02:43:04.190Z,93.08
2019-03-27T02:43:30.303Z,93.08
2019-03-27T02:43:56.453Z,93.08
2019-03-27T02:44:22.584Z,93.18
2019-03-27T02:44:48.691Z,93.18
2019-03-27T02:45:14.803Z,92.8
2019-03-27T02:45:40.937Z,92.8
2019-03-27T02:46:23.127Z,93.27
2019-03-27T02:46:34.272Z,92.89
2019-03-27T02:47:00.411Z,92.8
2019-03-27T02:47:26.567Z,92.8
2019-03-27T02:47:52.709Z,92.61
2019-03-27T02:48:19.443Z,92.89
2019-03-27T02:48:45.552Z,92.89
2019-03-27T02:49:11.684Z,92.89
2019-03-27T02:49:37.819Z,92.61
2019-03-27T02:50:03.966Z,93.08
2019-03-27T02:50:30.171Z,92.7
2019-03-27T02:50:56.306Z,92.89
2019-03-27T02:51:22.468Z,92.8
2019-03-27T02:51:48.635Z,92.8
2019-03-27T02:52:14.740Z,92.89
2019-03-27T02:52:40.844Z,92.7
2019-03-27T02:53:06.946Z,92.89
2019-03-27T02:53:33.062Z,92.8
2019-03-27T02:53:59.202Z,92.89
2019-03-27T02:54:25.335Z,92.7
2019-03-27T02:54:51.466Z,92.99
2019-03-27T02:55:17.608Z,92.89
2019-03-27T02:55:43.700Z,93.18
2019-03-27T02:56:09.807Z,93.18
2019-03-27T02:56:35.991Z,92.89
2019-03-27T02:57:02.124Z,92.8
2019-03-27T02:57:28.258Z,92.99
2019-03-27T02:57:54.422Z,92.89
2019-03-27T02:58:20.523Z,92.99
2019-03-27T02:58:46.664Z,92.51
2019-03-27T02:59:12.858Z,92.51
2019-03-27T02:59:38.988Z,92.22
2019-03-27T03:00:05.099Z,92.51
2019-03-27T03:00:31.316Z,92.89
2019-03-27T03:00:57.410Z,92.61
2019-03-27T03:01:23.531Z,92.22
2019-03-27T03:01:49.663Z,92.22
2019-03-27T03:02:15.828Z,92.51
2019-03-27T03:02:41.957Z,91.94
2019-03-27T03:03:08.097Z,91.94
2019-03-27T03:03:34.197Z,92.22
2019-03-27T03:04:00.390Z,92.41
2019-03-27T03:04:26.577Z,92.51
2019-03-27T03:04:52.702Z,92.03
2019-03-27T03:05:18.836Z,92.22
2019-03-27T03:05:44.936Z,92.22
2019-03-27T03:06:11.119Z,92.41
2019-03-27T03:06:37.256Z,92.32
2019-03-27T03:07:03.387Z,91.94
2019-03-27T03:07:29.555Z,91.75
2019-03-27T03:07:55.722Z,92.03
2019-03-27T03:08:21.911Z,91.85
2019-03-27T03:08:48.050Z,91.75
2019-03-27T03:09:14.337Z,91.94
2019-03-27T03:09:40.439Z,91.75
2019-03-27T03:10:06.698Z,91.94
2019-03-27T03:10:32.812Z,91.85
2019-03-27T03:10:59.934Z,91.37
2019-03-27T03:11:26.071Z,91.75
2019-03-27T03:11:52.244Z,91.28
2019-03-27T03:12:18.384Z,91.66
2019-03-27T03:12:44.613Z,91.66
2019-03-27T03:13:10.773Z,91.85
2019-03-27T03:13:36.936Z,91.66
2019-03-27T03:14:03.071Z,91.85
2019-03-27T03:14:29.206Z,91.56
2019-03-27T03:14:55.348Z,91.56
2019-03-27T03:15:21.513Z,91.28
2019-03-27T03:15:47.653Z,91.56
2019-03-27T03:16:13.754Z,91.56
2019-03-27T03:16:43.450Z,91.56
2019-03-27T03:17:08.988Z,91.56
2019-03-27T03:17:35.094Z,91.75
2019-03-27T03:18:01.228Z,92.22
2019-03-27T03:18:27.372Z,92.51
2019-03-27T03:18:53.505Z,92.32
2019-03-27T03:19:19.676Z,92.99
2019-03-27T03:19:45.810Z,92.99
2019-03-27T03:20:11.973Z,92.99
2019-03-27T03:20:38.108Z,92.8
2019-03-27T03:21:04.242Z,93.08
2019-03-27T03:21:30.351Z,92.89
2019-03-27T03:21:56.487Z,92.8
2019-03-27T03:22:22.628Z,92.99
2019-03-27T03:22:48.761Z,92.8
2019-03-27T03:23:14.896Z,92.7
2019-03-27T03:23:41.002Z,92.8
2019-03-27T03:24:07.139Z,92.99
2019-03-27T03:24:33.261Z,92.89
2019-03-27T03:24:59.441Z,92.89
2019-03-27T03:25:25.569Z,93.65
2019-03-27T03:25:51.708Z,93.75
2019-03-27T03:26:17.832Z,94.79
2019-03-27T03:26:43.918Z,94.6
2019-03-27T03:27:11.083Z,94.7
2019-03-27T03:27:37.240Z,95.08
2019-03-27T03:28:03.374Z,95.08
2019-03-27T03:28:29.514Z,94.89
2019-03-27T03:28:55.681Z,95.27
2019-03-27T03:29:21.839Z,95.08
2019-03-27T03:29:47.977Z,96.12
2019-03-27T03:30:14.112Z,96.55
2019-03-27T03:30:40.289Z,96.89
2019-03-27T03:31:06.419Z,96.98
2019-03-27T03:31:32.565Z,96.12
2019-03-27T03:31:58.725Z,96.22
2019-03-27T03:32:24.827Z,96.55
2019-03-27T03:32:51.118Z,96.93
2019-03-27T03:33:17.243Z,97.08
2019-03-27T03:33:43.372Z,97.12
2019-03-27T03:34:09.508Z,97.31
2019-03-27T03:34:35.648Z,97.83
2019-03-27T03:35:01.854Z,97.74
2019-03-27T03:35:28.014Z,97.78
2019-03-27T03:35:54.220Z,97.12
2019-03-27T03:36:20.292Z,96.93
2019-03-27T03:36:46.391Z,97.5
2019-03-27T03:37:12.496Z,97.5
2019-03-27T03:37:38.622Z,97.97
2019-03-27T03:38:04.736Z,97.69
2019-03-27T03:38:30.902Z,97.41
2019-03-27T03:38:57.102Z,97.78
2019-03-27T03:39:23.269Z,97.78
2019-03-27T03:39:49.398Z,98.17
2019-03-27T03:40:15.565Z,98.55
2019-03-27T03:40:41.701Z,98.26
2019-03-27T03:41:07.842Z,98.36
2019-03-27T03:41:33.988Z,98.64
2019-03-27T03:42:00.147Z,98.83
2019-03-27T03:42:26.255Z,99.11
2019-03-27T03:42:52.448Z,99.21
2019-03-27T03:43:18.606Z,99.4
2019-03-27T03:43:44.696Z,99.07
2019-03-27T03:44:10.836Z,99.26
2019-03-27T03:44:36.970Z,98.64
2019-03-27T03:45:03.107Z,98.45
2019-03-27T03:45:29.242Z,98.69
2019-03-27T03:45:55.413Z,98.22
2019-03-27T03:46:21.602Z,98.5
2019-03-27T03:46:59.231Z,97.83
2019-03-27T03:47:16.434Z,97.93
2019-03-27T03:47:42.533Z,98.12
2019-03-27T03:48:08.673Z,98.03
2019-03-27T03:48:34.866Z,97.36
2019-03-27T03:49:01.109Z,97.55
2019-03-27T03:49:27.165Z,97.45
2019-03-27T03:49:53.277Z,97.93
2019-03-27T03:50:19.448Z,97.74
2019-03-27T03:50:45.599Z,97.78
2019-03-27T03:51:11.753Z,98.36
2019-03-27T03:51:37.898Z,98.31
2019-03-27T03:52:04.064Z,98.22
2019-03-27T03:52:30.170Z,98.41
2019-03-27T03:52:56.682Z,98.41
2019-03-27T03:53:22.793Z,98.69
2019-03-27T03:53:48.926Z,98.41
2019-03-27T03:54:15.094Z,98.69
2019-03-27T03:54:41.243Z,98.64
2019-03-27T03:55:07.394Z,99.45
2019-03-27T03:55:33.558Z,99.36
2019-03-27T03:55:59.687Z,99.26
2019-03-27T03:56:25.828Z,98.79
2019-03-27T03:56:51.929Z,98.64
2019-03-27T03:57:18.068Z,99.36
2019-03-27T03:57:44.201Z,99.26
2019-03-27T03:58:10.371Z,99.07
2019-03-27T03:58:36.633Z,99.07
2019-03-27T03:59:03.537Z,99.16
2019-03-27T03:59:29.740Z,99.16
2019-03-27T03:59:56.097Z,99.26
2019-03-27T04:00:22.230Z,99.4
2019-03-27T04:00:48.367Z,99.84
2019-03-27T04:01:14.558Z,99.99
2019-03-27T04:01:40.676Z,99.55
2019-03-27T04:02:07.043Z,99.64
2019-03-27T04:02:33.246Z,99.64
2019-03-27T04:02:59.508Z,99.99
2019-03-27T04:03:25.852Z,99.74
2019-03-27T04:03:52.331Z,99.99
2019-03-27T04:04:21.709Z,99.74
2019-03-27T04:04:47.845Z,99.45
2019-03-27T04:05:14.372Z,99.74
2019-03-27T04:05:40.888Z,99.26
2019-03-27T04:06:07.394Z,99.45
2019-03-27T04:06:33.700Z,99.36
2019-03-27T04:07:00.311Z,98.97
2019-03-27T04:07:26.438Z,99.07
2019-03-27T04:07:52.791Z,99.45
2019-03-27T04:08:19.062Z,99.26
2019-03-27T04:08:45.806Z,99.26
2019-03-27T04:09:12.198Z,99.26
2019-03-27T04:09:38.389Z,99.16
2019-03-27T04:10:04.745Z,99.07
2019-03-27T04:10:30.874Z,99.26
2019-03-27T04:10:57.440Z,99.16
2019-03-27T04:11:24.036Z,99.26
2019-03-27T04:11:50.394Z,99.07
2019-03-27T04:12:16.835Z,98.5
2019-03-27T04:12:43.322Z,99.36
2019-03-27T04:13:09.587Z,98.79
2019-03-27T04:13:35.693Z,98.88
2019-03-27T04:14:02.135Z,98.6
2019-03-27T04:14:28.366Z,99.45
2019-03-27T04:14:55.001Z,98.79
2019-03-27T04:15:21.388Z,98.41
2019-03-27T04:15:47.564Z,98.69
2019-03-27T04:16:13.827Z,98.6
2019-03-27T04:16:40.215Z,98.12
2019-03-27T04:17:16.611Z,98.12
2019-03-27T04:17:35.920Z,98.03
2019-03-27T04:18:02.265Z,98.41
2019-03-27T04:18:28.488Z,97.83
2019-03-27T04:18:54.697Z,98.03
2019-03-27T04:19:21.490Z,98.03
2019-03-27T04:19:47.722Z,98.03
2019-03-27T04:20:14.266Z,98.03
2019-03-27T04:20:41.034Z,97.64
2019-03-27T04:21:07.219Z,97.93
2019-03-27T04:21:34.444Z,97.83
2019-03-27T04:22:00.682Z,97.45
2019-03-27T04:22:26.908Z,97.17
2019-03-27T04:22:53.504Z,97.93
2019-03-27T04:23:20.046Z,97.45
2019-03-27T04:23:46.450Z,97.55
2019-03-27T04:24:12.967Z,97.93
2019-03-27T04:24:39.067Z,97.36
2019-03-27T04:25:05.797Z,97.27
2019-03-27T04:26:00.241Z,97.27
2019-03-27T04:26:09.422Z,97.17
2019-03-27T04:26:33.471Z,97.36
2019-03-27T04:26:57.597Z,97.27
2019-03-27T04:27:23.758Z,97.27
2019-03-27T04:27:49.910Z,97.17
2019-03-27T04:28:16.047Z,97.36
2019-03-27T04:28:42.214Z,97.36
2019-03-27T04:29:08.324Z,97.27
2019-03-27T04:29:34.482Z,96.89
2019-03-27T04:30:00.586Z,97.08
2019-03-27T04:30:26.695Z,96.79
2019-03-27T04:30:52.804Z,96.5
2019-03-27T04:31:18.973Z,96.5
2019-03-27T04:31:45.138Z,96.31
2019-03-27T04:32:11.249Z,96.22
2019-03-27T04:32:37.410Z,96.6
2019-03-27T04:33:03.553Z,96.22
2019-03-27T04:33:29.715Z,95.65
2019-03-27T04:33:55.892Z,96.22
2019-03-27T04:34:22.027Z,96.12
2019-03-27T04:34:49.126Z,95.84
2019-03-27T04:35:15.243Z,96.03
2019-03-27T04:35:41.457Z,95.17
2019-03-27T04:36:07.565Z,95.65
2019-03-27T04:36:33.709Z,95.75
2019-03-27T04:36:59.871Z,95.27
2019-03-27T04:37:26.014Z,96.03
2019-03-27T04:37:52.147Z,95.94
2019-03-27T04:38:18.302Z,95.94
2019-03-27T04:38:44.489Z,96.6
2019-03-27T04:39:10.573Z,95.94
2019-03-27T04:39:36.736Z,96.12
2019-03-27T04:40:02.841Z,96.03
2019-03-27T04:40:28.980Z,96.03
2019-03-27T04:40:55.083Z,96.03
2019-03-27T04:41:21.200Z,95.27
2019-03-27T04:41:47.367Z,95.75
2019-03-27T04:42:13.525Z,94.7
2019-03-27T04:42:39.650Z,95.27
2019-03-27T04:43:05.763Z,95.08
2019-03-27T04:43:31.898Z,94.7
2019-03-27T04:43:58.004Z,95.08
2019-03-27T04:44:24.146Z,94.79
2019-03-27T04:44:50.280Z,94.7
2019-03-27T04:45:16.418Z,94.22
2019-03-27T04:45:42.515Z,94.79
2019-03-27T04:46:08.650Z,94.51
2019-03-27T04:46:34.755Z,94.42
2019-03-27T04:47:00.881Z,94.32
2019-03-27T04:47:32.251Z,94.79
2019-03-27T04:47:54.134Z,94.7
2019-03-27T04:48:20.262Z,94.42
2019-03-27T04:48:46.375Z,93.94
2019-03-27T04:49:13.050Z,93.84
2019-03-27T04:49:39.190Z,93.94
2019-03-27T04:50:05.309Z,93.55
2019-03-27T04:50:31.451Z,93.84
2019-03-27T04:50:57.583Z,93.65
2019-03-27T04:51:23.724Z,93.65
2019-03-27T04:51:49.830Z,93.55
2019-03-27T04:52:15.945Z,93.65
2019-03-27T04:52:42.045Z,93.75
2019-03-27T04:53:08.160Z,93.08
2019-03-27T04:53:34.267Z,93.46
2019-03-27T04:54:00.378Z,93.18
2019-03-27T04:54:27.066Z,93.65
2019-03-27T04:54:52.610Z,93.27
2019-03-27T04:55:18.718Z,93.46
2019-03-27T04:55:44.818Z,93.55
2019-03-27T04:56:10.927Z,92.89
2019-03-27T04:56:37.037Z,92.89
2019-03-27T04:57:03.140Z,92.51
2019-03-27T04:57:29.245Z,93.46
2019-03-27T04:57:55.383Z,93.46
2019-03-27T04:58:21.493Z,93.27
2019-03-27T04:58:47.600Z,93.84
2019-03-27T04:59:13.721Z,93.94
2019-03-27T04:59:39.827Z,93.75
2019-03-27T05:00:05.942Z,93.55
2019-03-27T05:00:32.106Z,93.75
2019-03-27T05:00:58.236Z,93.75
2019-03-27T05:01:24.365Z,93.75
2019-03-27T05:01:50.496Z,93.75
2019-03-27T05:02:17.203Z,93.94
2019-03-27T05:02:43.324Z,93.37
2019-03-27T05:03:09.463Z,93.18
2019-03-27T05:03:35.575Z,93.37
2019-03-27T05:04:01.686Z,92.7
2019-03-27T05:04:27.793Z,93.37
2019-03-27T05:04:53.901Z,93.46
2019-03-27T05:05:20.039Z,93.55
2019-03-27T05:05:46.226Z,92.7
2019-03-27T05:06:12.286Z,92.94
2019-03-27T05:06:38.417Z,93.37
2019-03-27T05:07:04.544Z,93.23
2019-03-27T05:07:30.650Z,92.75
2019-03-27T05:07:56.759Z,92.89
2019-03-27T05:08:22.893Z,93.08
2019-03-27T05:08:49.002Z,93.13
2019-03-27T05:09:15.111Z,92.94
2019-03-27T05:09:41.279Z,92.94
2019-03-27T05:10:07.325Z,92.94
2019-03-27T05:10:33.434Z,93.13
2019-03-27T05:10:59.545Z,93.23
2019-03-27T05:11:25.648Z,93.13
2019-03-27T05:11:51.760Z,93.32
2019-03-27T05:12:17.869Z,93.27
2019-03-27T05:12:44.257Z,93.13
2019-03-27T05:13:10.367Z,93.32
2019-03-27T05:13:36.473Z,93.23
2019-03-27T05:14:02.583Z,92.46
2019-03-27T05:14:28.690Z,92.56
2019-03-27T05:14:54.794Z,92.56
2019-03-27T05:15:20.899Z,92.56
2019-03-27T05:15:47.063Z,92.65
2019-03-27T05:16:13.207Z,92.46
2019-03-27T05:16:39.313Z,92.65
2019-03-27T05:17:05.451Z,92.56
2019-03-27T05:17:44.641Z,92.65
2019-03-27T05:17:59.705Z,92.56
2019-03-27T05:18:25.810Z,92.46
2019-03-27T05:18:51.943Z,92.56
2019-03-27T05:19:18.043Z,91.99
2019-03-27T05:19:44.150Z,92.75
2019-03-27T05:20:10.283Z,92.27
2019-03-27T05:20:37.385Z,92.65
2019-03-27T05:21:03.554Z,92.56
2019-03-27T05:21:29.631Z,92.36
2019-03-27T05:21:55.769Z,92.56
2019-03-27T05:22:21.879Z,93.13
2019-03-27T05:22:48.016Z,93.13
2019-03-27T05:23:14.149Z,93.13
2019-03-27T05:23:40.291Z,92.94
2019-03-27T05:24:06.397Z,93.13
2019-03-27T05:24:32.505Z,92.36
2019-03-27T05:24:58.613Z,93.23
2019-03-27T05:25:24.745Z,93.13
2019-03-27T05:25:50.859Z,93.32
2019-03-27T05:26:16.993Z,93.32
2019-03-27T05:26:43.106Z,93.13
2019-03-27T05:27:09.214Z,92.65
2019-03-27T05:27:36.383Z,92.56
2019-03-27T05:28:02.413Z,93.04
2019-03-27T05:28:28.557Z,93.13
2019-03-27T05:28:54.661Z,93.13
2019-03-27T05:29:20.775Z,93.32
2019-03-27T05:29:46.988Z,92.36
2019-03-27T05:30:13.045Z,92.36
2019-03-27T05:30:39.179Z,93.13
2019-03-27T05:31:05.319Z,92.46
2019-03-27T05:31:31.427Z,93.13
2019-03-27T05:31:57.535Z,93.23
2019-03-27T05:32:23.642Z,93.23
2019-03-27T05:32:49.753Z,93.23
2019-03-27T05:33:15.867Z,92.56
2019-03-27T05:33:42.965Z,92.75
2019-03-27T05:34:09.074Z,92.65
2019-03-27T05:34:35.247Z,93.23
2019-03-27T05:35:01.351Z,93.23
2019-03-27T05:35:27.489Z,93.89
2019-03-27T05:35:53.636Z,92.94
2019-03-27T05:36:19.744Z,93.41
2019-03-27T05:36:45.852Z,93.51
2019-03-27T05:37:11.962Z,93.41
2019-03-27T05:37:38.097Z,93.6
2019-03-27T05:38:04.245Z,92.56